createdAt,value
2023-04-02T00:01:27.915Z,101466.06
2023-04-02T00:04:22.124Z,101466.75
2023-04-02T00:06:58.033Z,101464.91
2023-04-02T00:09:31.530Z,101434.41
2023-04-02T00:12:00.326Z,101462.03
2023-04-02T00:14:31.720Z,101468.94
2023-04-02T00:17:02.309Z,101487.03
2023-04-02T00:19:37.389Z,101482.72
2023-04-02T00:22:08.936Z,101483.53
2023-04-02T00:24:39.502Z,101487.56
2023-04-02T00:27:12.724Z,101489.50
2023-04-02T00:29:47.826Z,101494.78
2023-04-02T00:32:22.414Z,101499.03
2023-04-02T00:34:51.856Z,101500.78
2023-04-02T00:37:27.995Z,101494.88
2023-04-02T00:40:01.605Z,101505.16
2023-04-02T00:42:32.174Z,101505.06
2023-04-02T00:45:02.517Z,101513.72
2023-04-02T00:47:35.739Z,101517.13
2023-04-02T00:50:09.098Z,101516.22
2023-04-02T00:52:37.694Z,101523.41
2023-04-02T00:55:10.438Z,101519.19
2023-04-02T00:57:38.697Z,101522.63
2023-04-02T01:00:21.389Z,101534.72
2023-04-02T01:03:28.922Z,101438.22
2023-04-02T01:06:05.060Z,101540.69
2023-04-02T01:08:51.264Z,101536.69
2023-04-02T01:11:39.285Z,101546.91
2023-04-02T01:14:17.016Z,101540.09
2023-04-02T01:16:54.036Z,101550.44
2023-04-02T01:19:52.582Z,101512.94
2023-04-02T01:22:30.768Z,101540.78
2023-04-02T01:24:59.417Z,101557.41
2023-04-02T01:27:31.066Z,101553.16
2023-04-02T01:30:03.703Z,101557.63
2023-04-02T01:32:32.230Z,101538.34
2023-04-02T01:35:01.320Z,101558.38
2023-04-02T01:37:40.002Z,101571.28
2023-04-02T01:40:20.920Z,101571.25
2023-04-02T01:42:57.132Z,101576.34
2023-04-02T01:45:26.469Z,101579.59
2023-04-02T01:47:54.307Z,101577.88
2023-04-02T01:50:31.478Z,101586.41
2023-04-02T01:53:02.117Z,101583.88
2023-04-02T01:55:37.634Z,101595.13
2023-04-02T01:58:05.894Z,101584.72
2023-04-02T02:00:37.403Z,101595.06
2023-04-02T02:03:08.692Z,101597.44
2023-04-02T02:05:36.894Z,101606.91
2023-04-02T02:08:06.710Z,101610.38
2023-04-02T02:10:37.423Z,101615.47
2023-04-02T02:13:05.750Z,101606.97
2023-04-02T02:15:37.286Z,101512.84
2023-04-02T02:18:07.252Z,101619.91
2023-04-02T02:20:36.107Z,101626.59
2023-04-02T02:23:05.491Z,101624.75
2023-04-02T02:25:36.064Z,101610.06
2023-04-02T02:28:08.107Z,101645.59
2023-04-02T02:30:40.063Z,101638.69
2023-04-02T02:33:16.317Z,101643.13
2023-04-02T02:35:49.684Z,101642.09
2023-04-02T02:38:32.873Z,101648.09
2023-04-02T02:41:06.282Z,101642.88
2023-04-02T02:43:35.103Z,101650.41
2023-04-02T02:46:06.772Z,101657.34
2023-04-02T02:48:38.382Z,101655.63
2023-04-02T02:51:10.978Z,101663.47
2023-04-02T02:53:47.595Z,101673.78
2023-04-02T02:56:15.842Z,101671.19
2023-04-02T02:58:43.967Z,101669.16
2023-04-02T03:01:13.293Z,101684.00
2023-04-02T03:03:41.593Z,101703.72
2023-04-02T03:06:12.076Z,101690.97
2023-04-02T03:08:45.422Z,101691.69
2023-04-02T03:11:20.233Z,101707.72
2023-04-02T03:13:51.881Z,101710.31
2023-04-02T03:16:27.107Z,101714.59
2023-04-02T03:18:59.640Z,101721.31
2023-04-02T03:21:31.845Z,101721.31
2023-04-02T03:24:04.684Z,101732.41
2023-04-02T03:26:36.967Z,101735.03
2023-04-02T03:29:12.542Z,101737.28
2023-04-02T03:31:47.997Z,101745.00
2023-04-02T03:34:21.942Z,101749.16
2023-04-02T03:36:57.903Z,101747.91
2023-04-02T03:39:32.532Z,101761.78
2023-04-02T03:42:04.192Z,101766.84
2023-04-02T03:44:36.364Z,101775.28
2023-04-02T03:47:14.111Z,101769.03
2023-04-02T03:49:48.584Z,101787.19
2023-04-02T03:52:24.327Z,101790.00
2023-04-02T03:54:53.968Z,101793.19
2023-04-02T03:57:29.226Z,101793.78
2023-04-02T04:00:04.708Z,101805.84
2023-04-02T04:02:45.026Z,101807.53
2023-04-02T04:05:31.833Z,101808.53
2023-04-02T04:08:04.498Z,101812.78
2023-04-02T04:10:33.209Z,101803.16
2023-04-02T04:13:04.945Z,101792.66
2023-04-02T04:15:38.289Z,101818.00
2023-04-02T04:18:19.321Z,101821.44
2023-04-02T04:20:56.403Z,101823.28
2023-04-02T04:23:30.296Z,101834.38
2023-04-02T04:26:01.963Z,101842.03
2023-04-02T04:28:38.241Z,101836.59
2023-04-02T04:31:18.062Z,101840.19
2023-04-02T04:33:54.824Z,101841.94
2023-04-02T04:36:28.649Z,101857.38
2023-04-02T04:39:00.487Z,101864.91
2023-04-02T04:41:33.341Z,101854.50
2023-04-02T04:44:05.837Z,101876.84
2023-04-02T04:46:39.893Z,101872.63
2023-04-02T04:49:15.691Z,101870.66
2023-04-02T04:51:49.087Z,101880.91
2023-04-02T04:54:18.590Z,101881.09
2023-04-02T04:56:50.609Z,101888.06
2023-04-02T04:59:24.581Z,101887.38
2023-04-02T05:01:56.641Z,101886.50
2023-04-02T05:04:30.386Z,101896.00
2023-04-02T05:07:04.162Z,101896.06
2023-04-02T05:09:35.936Z,101897.84
2023-04-02T05:12:11.367Z,101896.88
2023-04-02T05:14:45.979Z,101910.47
2023-04-02T05:17:21.435Z,101906.47
2023-04-02T05:19:56.713Z,101914.28
2023-04-02T05:22:31.386Z,101909.06
2023-04-02T05:25:11.947Z,101891.28
2023-04-02T05:27:46.014Z,101897.28
2023-04-02T05:30:34.123Z,101906.75
2023-04-02T05:33:07.867Z,101909.22
2023-04-02T05:35:42.801Z,101884.13
2023-04-02T05:38:21.172Z,101914.03
2023-04-02T05:40:55.277Z,101917.50
2023-04-02T05:43:26.627Z,101940.25
2023-04-02T05:45:56.353Z,101938.66
2023-04-02T05:48:30.842Z,101950.91
2023-04-02T05:51:01.242Z,101932.91
2023-04-02T05:53:34.378Z,101975.22
2023-04-02T05:56:08.919Z,101964.03
2023-04-02T05:58:45.292Z,101971.19
2023-04-02T06:01:22.115Z,101954.25
2023-04-02T06:04:00.930Z,101966.13
2023-04-02T06:06:47.601Z,101979.13
2023-04-02T06:09:22.189Z,101976.59
2023-04-02T06:11:55.407Z,101987.94
2023-04-02T06:14:23.275Z,101992.91
2023-04-02T06:16:51.366Z,101983.94
2023-04-02T06:19:23.805Z,101992.97
2023-04-02T06:22:00.048Z,101984.94
2023-04-02T06:24:30.851Z,101995.03
2023-04-02T06:27:03.750Z,101990.69
2023-04-02T06:29:39.573Z,101996.09
2023-04-02T06:32:09.356Z,101991.66
2023-04-02T06:34:39.830Z,101988.09
2023-04-02T06:37:18.413Z,102002.78
2023-04-02T06:39:46.479Z,101987.13
2023-04-02T06:42:17.853Z,102000.63
2023-04-02T06:44:45.926Z,102008.44
2023-04-02T06:47:23.931Z,102007.06
2023-04-02T06:49:57.864Z,101986.97
2023-04-02T06:52:31.620Z,102022.00
2023-04-02T06:55:00.909Z,102020.97
2023-04-02T06:57:28.869Z,102024.63
2023-04-02T06:59:56.704Z,102023.00
2023-04-02T07:02:32.362Z,102035.09
2023-04-02T07:05:04.248Z,102029.88
2023-04-02T07:07:33.468Z,102051.63
2023-04-02T07:10:01.400Z,102048.22
2023-04-02T07:12:32.193Z,102051.41
2023-04-02T07:15:00.028Z,102022.81
2023-04-02T07:17:27.889Z,102059.34
2023-04-02T07:19:55.716Z,102055.69
2023-04-02T07:22:23.684Z,102068.09
2023-04-02T07:24:53.116Z,102048.81
2023-04-02T07:27:20.942Z,102074.91
2023-04-02T07:29:48.722Z,102081.22
2023-04-02T07:32:17.340Z,102076.34
2023-04-02T07:34:45.457Z,102103.94
2023-04-02T07:37:15.625Z,102092.03
2023-04-02T07:39:43.486Z,102090.09
2023-04-02T07:42:12.737Z,102099.38
2023-04-02T07:44:40.826Z,102092.06
2023-04-02T07:47:10.544Z,102096.75
2023-04-02T07:49:38.373Z,102118.81
2023-04-02T07:52:06.846Z,102120.00
2023-04-02T07:54:35.821Z,102103.84
2023-04-02T07:57:03.768Z,102120.97
2023-04-02T07:59:33.021Z,102122.59
2023-04-02T08:02:00.821Z,102123.84
2023-04-02T08:04:28.652Z,102123.13
2023-04-02T08:06:56.395Z,102125.75
2023-04-02T08:09:24.256Z,102122.81
2023-04-02T08:11:52.015Z,102117.41
2023-04-02T08:14:19.810Z,102104.41
2023-04-02T08:16:51.503Z,102134.41
2023-04-02T08:19:19.971Z,102135.06
2023-04-02T08:21:50.682Z,102154.41
2023-04-02T08:24:19.325Z,102152.72
2023-04-02T08:26:47.513Z,102148.44
2023-04-02T08:29:15.333Z,102146.41
2023-04-02T08:31:43.679Z,102156.78
2023-04-02T08:34:13.271Z,102167.06
2023-04-02T08:36:44.362Z,102164.63
2023-04-02T08:39:12.672Z,102153.38
2023-04-02T08:41:46.374Z,102168.97
2023-04-02T08:44:33.394Z,102165.53
2023-04-02T08:47:05.028Z,102172.47
2023-04-02T08:49:40.523Z,102167.28
2023-04-02T08:52:22.736Z,102119.50
2023-04-02T08:54:51.817Z,102178.22
2023-04-02T08:57:28.381Z,102159.13
2023-04-02T09:00:00.815Z,102179.94
2023-04-02T09:02:36.879Z,102183.97
2023-04-02T09:05:09.374Z,102166.28
2023-04-02T09:07:37.356Z,102180.47
2023-04-02T09:10:06.144Z,102164.31
2023-04-02T09:12:33.971Z,102189.56
2023-04-02T09:15:16.282Z,102206.75
2023-04-02T09:17:53.563Z,102185.94
2023-04-02T09:20:26.304Z,102201.38
2023-04-02T09:22:56.047Z,102202.06
2023-04-02T09:25:28.077Z,102200.31
2023-04-02T09:27:58.131Z,102184.34
2023-04-02T09:30:39.465Z,102179.66
2023-04-02T09:33:09.120Z,102212.31
2023-04-02T09:35:54.417Z,102221.69
2023-04-02T09:38:24.774Z,102224.97
2023-04-02T09:40:58.442Z,102209.44
2023-04-02T09:43:28.894Z,102211.94
2023-04-02T09:46:00.390Z,102251.91
2023-04-02T09:48:31.445Z,102225.94
2023-04-02T09:51:12.948Z,102203.91
2023-04-02T09:53:44.762Z,102253.50
2023-04-02T09:56:16.061Z,102253.72
2023-04-02T09:58:45.301Z,102254.25
2023-04-02T10:01:32.383Z,102247.03
2023-04-02T10:04:00.439Z,102228.78
2023-04-02T10:06:31.859Z,102255.72
2023-04-02T10:08:59.942Z,102215.91
2023-04-02T10:11:43.700Z,102258.56
2023-04-02T10:14:19.362Z,102254.16
2023-04-02T10:16:51.717Z,102270.78
2023-04-02T10:19:26.416Z,102270.78
2023-04-02T10:21:58.951Z,102261.84
2023-04-02T10:24:29.411Z,102271.75
2023-04-02T10:27:06.913Z,102263.19
2023-04-02T10:29:49.898Z,102285.81
2023-04-02T10:32:21.558Z,102282.72
2023-04-02T10:34:57.642Z,102281.94
2023-04-02T10:37:58.668Z,102285.44
2023-04-02T10:40:33.101Z,102290.91
2023-04-02T10:43:33.968Z,102300.75
2023-04-02T10:46:09.062Z,102315.25
2023-04-02T10:48:46.682Z,102308.09
2023-04-02T10:51:26.390Z,102315.94
2023-04-02T10:54:03.829Z,102316.78
2023-04-02T10:56:44.073Z,102320.47
2023-04-02T10:59:20.676Z,102323.56
2023-04-02T11:01:51.812Z,102318.09
2023-04-02T11:04:23.161Z,102315.63
2023-04-02T11:07:07.129Z,102279.22
2023-04-02T11:09:44.948Z,102339.00
2023-04-02T11:12:22.754Z,102337.13
2023-04-02T11:14:52.690Z,102303.03
2023-04-02T11:17:21.317Z,102330.66
2023-04-02T11:19:49.182Z,102338.59
2023-04-02T11:22:18.417Z,102337.47
2023-04-02T11:24:48.451Z,102302.47
2023-04-02T11:27:25.651Z,102338.50
2023-04-02T11:29:59.211Z,102352.47
2023-04-02T11:32:36.747Z,102350.22
2023-04-02T11:35:27.785Z,102328.69
2023-04-02T11:37:58.053Z,102330.19
2023-04-02T11:40:48.186Z,102369.06
2023-04-02T11:44:01.058Z,102363.06
2023-04-02T11:46:47.387Z,102356.00
2023-04-02T11:49:39.641Z,102360.91
2023-04-02T11:52:22.684Z,102343.28
2023-04-02T11:55:02.114Z,102359.09
2023-04-02T11:57:51.545Z,102359.72
2023-04-02T12:00:42.132Z,102363.25
2023-04-02T12:03:29.776Z,102273.19
2023-04-02T12:06:06.863Z,102361.72
2023-04-02T12:08:57.028Z,102327.41
2023-04-02T12:11:35.106Z,102374.06
2023-04-02T12:14:04.501Z,102369.47
2023-04-02T12:16:36.434Z,102373.88
2023-04-02T12:19:10.189Z,102374.72
2023-04-02T12:21:39.025Z,102382.22
2023-04-02T12:24:07.776Z,102381.22
2023-04-02T12:26:38.445Z,102386.28
2023-04-02T12:29:17.750Z,102387.59
2023-04-02T12:31:48.731Z,102384.03
2023-04-02T12:34:18.978Z,102370.53
2023-04-02T12:36:55.087Z,102383.31
2023-04-02T12:39:25.847Z,102390.72
2023-04-02T12:41:55.342Z,102398.59
2023-04-02T12:44:24.940Z,102353.34
2023-04-02T12:46:54.852Z,102372.88
2023-04-02T12:49:39.216Z,102402.94
2023-04-02T12:52:09.854Z,102407.22
2023-04-02T12:54:45.011Z,102414.53
2023-04-02T12:57:24.315Z,102406.34
2023-04-02T12:59:52.743Z,102411.75
2023-04-02T13:02:24.176Z,102414.31
2023-04-02T13:04:53.960Z,102412.38
2023-04-02T13:07:23.739Z,102417.66
2023-04-02T13:09:53.314Z,102418.72
2023-04-02T13:12:27.046Z,102429.97
2023-04-02T13:14:56.709Z,102435.34
2023-04-02T13:17:43.692Z,102425.97
2023-04-02T13:20:31.900Z,102386.47
2023-04-02T13:23:01.352Z,102438.09
2023-04-02T13:25:32.035Z,102411.59
2023-04-02T13:28:00.002Z,102450.13
2023-04-02T13:30:29.352Z,102438.22
2023-04-02T13:32:58.768Z,102440.63
2023-04-02T13:35:27.248Z,102437.06
2023-04-02T13:37:55.185Z,102454.47
2023-04-02T13:40:23.022Z,102441.34
2023-04-02T13:42:51.066Z,102460.31
2023-04-02T13:45:26.743Z,102459.72
2023-04-02T13:47:55.030Z,102451.19
2023-04-02T13:50:25.196Z,102403.22
2023-04-02T13:52:53.339Z,102458.34
2023-04-02T13:55:24.171Z,102406.03
2023-04-02T13:57:52.276Z,102463.25
2023-04-02T14:00:21.293Z,102458.91
2023-04-02T14:02:52.874Z,102464.63
2023-04-02T14:05:33.106Z,102471.06
2023-04-02T14:08:09.032Z,102450.56
2023-04-02T14:10:58.594Z,102477.28
2023-04-02T14:13:42.795Z,102485.75
2023-04-02T14:16:23.748Z,102464.34
2023-04-02T14:19:04.192Z,102479.41
2023-04-02T14:21:45.959Z,102476.00
2023-04-02T14:24:19.638Z,102478.59
2023-04-02T14:27:11.745Z,102470.56
2023-04-02T14:29:46.779Z,102483.63
2023-04-02T14:32:21.900Z,102476.19
2023-04-02T14:34:59.345Z,102478.50
2023-04-02T14:37:38.435Z,102480.84
2023-04-02T14:40:15.749Z,102444.34
2023-04-02T14:42:48.809Z,102479.84
2023-04-02T14:45:30.870Z,102475.22
2023-04-02T14:48:02.104Z,102497.19
2023-04-02T14:50:34.946Z,102506.59
2023-04-02T14:53:10.329Z,102509.25
2023-04-02T14:55:42.493Z,102416.19
2023-04-02T14:58:18.051Z,102521.78
2023-04-02T15:00:52.669Z,102505.88
2023-04-02T15:03:25.010Z,102514.50
2023-04-02T15:05:57.019Z,102520.53
2023-04-02T15:08:29.645Z,102522.97
2023-04-02T15:11:05.839Z,102501.69
2023-04-02T15:13:38.915Z,102519.28
2023-04-02T15:16:15.624Z,102524.56
2023-04-02T15:18:43.751Z,102528.44
2023-04-02T15:21:30.382Z,102530.25
2023-04-02T15:24:05.371Z,102536.53
2023-04-02T15:26:42.920Z,102540.75
2023-04-02T15:29:28.747Z,102519.91
2023-04-02T15:32:05.766Z,102540.81
2023-04-02T15:34:42.844Z,102525.34
2023-04-02T15:37:23.169Z,102542.38
2023-04-02T15:40:17.120Z,102554.19
2023-04-02T15:42:50.969Z,102545.78
2023-04-02T15:45:28.129Z,102540.34
2023-04-02T15:48:09.865Z,102549.75
2023-04-02T15:50:48.192Z,102552.31
2023-04-02T15:53:31.799Z,102556.13
2023-04-02T15:56:15.786Z,102567.84
2023-04-02T15:59:04.152Z,102567.59
2023-04-02T16:01:40.814Z,102574.16
2023-04-02T16:04:22.288Z,102561.88
2023-04-02T16:07:02.764Z,102570.53
2023-04-02T16:09:40.769Z,102576.66
2023-04-02T16:12:15.815Z,102575.63
2023-04-02T16:14:45.962Z,102589.22
2023-04-02T16:17:24.830Z,102506.41
2023-04-02T16:19:57.758Z,102584.19
2023-04-02T16:22:28.354Z,102590.97
2023-04-02T16:25:01.595Z,102585.53
2023-04-02T16:27:36.891Z,102602.03
2023-04-02T16:30:35.176Z,102604.13
2023-04-02T16:33:11.381Z,102599.31
2023-04-02T16:35:46.437Z,102616.94
2023-04-02T16:38:25.777Z,102617.69
2023-04-02T16:41:08.312Z,102610.47
2023-04-02T16:43:47.034Z,102615.56
2023-04-02T16:46:38.134Z,102628.41
2023-04-02T16:49:18.698Z,102627.72
2023-04-02T16:51:58.022Z,102636.91
2023-04-02T16:54:32.389Z,102635.72
2023-04-02T16:57:19.853Z,102640.94
2023-04-02T17:00:00.623Z,102641.47
2023-04-02T17:02:42.200Z,102650.41
2023-04-02T17:05:30.343Z,102652.78
2023-04-02T17:08:09.824Z,102653.56
2023-04-02T17:10:46.872Z,102660.38
2023-04-02T17:13:24.082Z,102660.06
2023-04-02T17:16:01.078Z,102598.69
2023-04-02T17:18:29.000Z,102657.81
2023-04-02T17:21:03.261Z,102663.88
2023-04-02T17:23:40.559Z,102686.25
2023-04-02T17:26:15.830Z,102680.47
2023-04-02T17:28:46.039Z,102681.66
2023-04-02T17:31:20.031Z,102690.78
2023-04-02T17:33:48.076Z,102691.69
2023-04-02T17:36:40.961Z,102694.19
2023-04-02T17:39:18.665Z,102696.38
2023-04-02T17:41:53.776Z,102706.81
2023-04-02T17:44:38.849Z,102705.53
2023-04-02T17:47:15.590Z,102716.47
2023-04-02T17:49:54.464Z,102723.19
2023-04-02T17:52:25.771Z,102721.31
2023-04-02T17:55:02.564Z,102731.59
2023-04-02T17:57:47.731Z,102737.44
2023-04-02T18:00:30.479Z,102713.59
2023-04-02T18:03:26.308Z,102744.84
2023-04-02T18:06:00.038Z,102737.72
2023-04-02T18:08:34.286Z,102737.25
2023-04-02T18:11:11.183Z,102758.75
2023-04-02T18:13:43.038Z,102762.84
2023-04-02T18:16:27.503Z,102758.22
2023-04-02T18:19:06.015Z,102770.00
2023-04-02T18:21:43.103Z,102775.78
2023-04-02T18:24:33.489Z,102785.91
2023-04-02T18:27:17.191Z,102795.94
2023-04-02T18:29:54.573Z,102790.38
2023-04-02T18:32:39.957Z,102801.25
2023-04-02T18:35:18.848Z,102797.63
2023-04-02T18:37:58.937Z,102817.97
2023-04-02T18:40:38.646Z,102799.72
2023-04-02T18:43:17.224Z,102807.31
2023-04-02T18:45:55.543Z,102802.69
2023-04-02T18:48:35.249Z,102739.28
2023-04-02T18:51:06.952Z,102816.31
2023-04-02T18:53:35.873Z,102825.47
2023-04-02T18:56:05.904Z,102828.06
2023-04-02T18:58:41.811Z,102826.31
2023-04-02T19:01:15.019Z,102825.47
2023-04-02T19:03:48.178Z,102836.63
2023-04-02T19:06:21.684Z,102840.78
2023-04-02T19:08:52.476Z,102834.41
2023-04-02T19:11:28.546Z,102831.53
2023-04-02T19:13:56.429Z,102837.34
2023-04-02T19:16:38.967Z,102839.81
2023-04-02T19:19:16.936Z,102850.59
2023-04-02T19:22:01.895Z,102855.28
2023-04-02T19:24:44.353Z,102844.22
2023-04-02T19:27:20.604Z,102858.88
2023-04-02T19:30:01.351Z,102861.91
2023-04-02T19:32:38.512Z,102874.53
2023-04-02T19:35:17.833Z,102876.72
2023-04-02T19:37:58.225Z,102881.69
2023-04-02T19:40:38.863Z,102864.81
2023-04-02T19:43:10.106Z,102794.06
2023-04-02T19:45:40.882Z,102881.38
2023-04-02T19:48:15.918Z,102773.97
2023-04-02T19:50:44.370Z,102883.75
2023-04-02T19:53:14.198Z,102883.69
2023-04-02T19:55:42.415Z,102882.19
2023-04-02T19:58:19.870Z,102890.66
2023-04-02T20:00:48.159Z,102898.88
2023-04-02T20:03:16.017Z,102896.78
2023-04-02T20:05:43.858Z,102895.66
2023-04-02T20:08:13.046Z,102895.59
2023-04-02T20:10:41.557Z,102894.28
2023-04-02T20:13:10.474Z,102905.53
2023-04-02T20:15:39.746Z,102909.63
2023-04-02T20:18:07.910Z,102915.38
2023-04-02T20:20:35.949Z,102919.34
2023-04-02T20:23:04.260Z,102921.00
2023-04-02T20:25:33.629Z,102926.69
2023-04-02T20:28:03.750Z,102929.84
2023-04-02T20:30:32.422Z,102919.88
2023-04-02T20:33:01.144Z,102935.31
2023-04-02T20:35:30.956Z,102935.16
2023-04-02T20:37:58.771Z,102936.38
2023-04-02T20:40:26.621Z,102939.44
2023-04-02T20:42:55.940Z,102946.91
2023-04-02T20:45:24.422Z,102938.94
2023-04-02T20:47:52.198Z,102952.38
2023-04-02T20:50:20.429Z,102943.44
2023-04-02T20:52:48.233Z,102944.00
2023-04-02T20:55:16.151Z,102948.13
2023-04-02T20:57:44.146Z,102958.41
2023-04-02T21:00:14.677Z,102927.59
2023-04-02T21:02:42.506Z,102955.56
2023-04-02T21:05:10.607Z,102956.19
2023-04-02T21:07:38.471Z,102964.72
2023-04-02T21:10:06.894Z,102973.09
2023-04-02T21:12:34.648Z,102951.91
2023-04-02T21:15:03.003Z,102956.91
2023-04-02T21:17:32.357Z,102961.16
2023-04-02T21:20:00.176Z,102965.41
2023-04-02T21:22:28.024Z,102972.00
2023-04-02T21:24:55.945Z,102950.66
2023-04-02T21:27:25.936Z,102950.66
2023-04-02T21:29:54.043Z,102948.44
2023-04-02T21:32:22.319Z,102978.22
2023-04-02T21:34:51.697Z,102982.16
2023-04-02T21:37:19.503Z,102980.16
2023-04-02T21:39:47.313Z,102990.19
2023-04-02T21:42:15.299Z,102988.34
2023-04-02T21:44:43.316Z,102993.25
2023-04-02T21:47:11.228Z,102988.59
2023-04-02T21:49:39.077Z,102992.13
2023-04-02T21:52:08.234Z,102997.41
2023-04-02T21:54:36.038Z,102997.09
2023-04-02T21:57:03.892Z,102997.72
2023-04-02T21:59:31.803Z,103000.28
2023-04-02T22:01:59.686Z,103000.13
2023-04-02T22:04:28.477Z,103008.66
2023-04-02T22:06:56.381Z,102999.72
2023-04-02T22:09:26.817Z,103004.94
2023-04-02T22:11:56.118Z,103006.28
2023-04-02T22:14:24.252Z,102913.44
2023-04-02T22:16:52.941Z,103008.63
2023-04-02T22:19:21.272Z,103006.78
2023-04-02T22:21:49.183Z,103008.28
2023-04-02T22:24:19.303Z,103009.97
2023-04-02T22:26:48.713Z,103001.03
2023-04-02T22:29:17.081Z,102987.72
2023-04-02T22:31:45.567Z,103011.75
2023-04-02T22:34:13.482Z,102996.22
2023-04-02T22:36:41.496Z,103021.50
2023-04-02T22:39:11.945Z,103013.56
2023-04-02T22:41:39.797Z,103011.97
2023-04-02T22:44:08.973Z,103002.16
2023-04-02T22:46:37.182Z,103024.72
2023-04-02T22:49:05.308Z,103020.28
2023-04-02T22:51:33.149Z,103019.31
2023-04-02T22:54:01.078Z,103030.22
2023-04-02T22:56:32.038Z,103032.59
2023-04-02T22:59:00.751Z,103029.88
2023-04-02T23:01:32.144Z,103033.47
2023-04-02T23:04:00.083Z,103034.38
2023-04-02T23:06:29.377Z,103040.28
2023-04-02T23:08:57.206Z,103025.28
2023-04-02T23:11:27.389Z,103020.50
2023-04-02T23:13:57.925Z,103021.38
2023-04-02T23:16:28.222Z,103030.94
2023-04-02T23:18:58.507Z,103036.56
2023-04-02T23:21:26.920Z,103047.13
2023-04-02T23:23:55.122Z,103019.81
2023-04-02T23:26:24.550Z,103040.88
2023-04-02T23:28:52.497Z,103038.13
2023-04-02T23:31:22.100Z,103050.25
2023-04-02T23:33:50.543Z,103040.44
2023-04-02T23:36:22.924Z,103020.91
2023-04-02T23:38:55.286Z,103030.78
2023-04-02T23:41:27.115Z,103050.06
2023-04-02T23:43:55.869Z,103050.78
2023-04-02T23:46:23.776Z,103046.09
2023-04-02T23:48:51.804Z,103053.97
2023-04-02T23:51:21.024Z,103055.38
2023-04-02T23:53:49.340Z,103045.94
2023-04-02T23:56:17.374Z,103000.75
2023-04-02T23:58:45.580Z,103057.94
